Edgewood, Florida
Current Conditions -  °F | °C
As of 1:53 PM on Thursday 25 Dec 2014 (Local Time) from KORL Reporting Station
Overcast Overcast  
Wind Chill: 64°   Ceiling: 7500
Heat Index: 64°   Visibility: 10mi
Dew Point: 47°   Wind: 7mph
Humidity: 54%   Direction: 340°NNW
Pressure: 30.18"   Gusts: NA
Location:  28.4877°N, 81.409°W
Report Text: KORL 251853Z 34006KT 10SM OVC075 18/08 A3018 RMK AO2 SLP225 T01780083
Loading
Personal Weather Stations






























Interactive Weather Map New forecast layout! Learn more

10-Day Weather Forecast

Advertisements
Track Severe Weather on mobile